Terminal Aerodrome Forecast
Issued by NWS

Home | Current Version | Previous Version | Text Only | Print | Product List | Glossary On
Versions: 1 2 3 4 5 6 7 8 9 10 11 12 13 14 15 16 17 18
000
FTUS41 KBOX 061509 AAA
TAFACK
TAF AMD
KACK 061509Z 0615/0712 36012KT P6SM FEW250
     FM062100 05009KT P6SM BKN150
     FM070500 07010KT P6SM -RA OVC040=

USA.gov is the U.S. government's official web portal to all federal, state and local government web resources and services.